Huadong Pearl 8 — 3EQX7 — position and weather

sailwx.info

Track history (hours):
 
Tides and Currents Weather Stations Pressure Air Temp Water Temp Dewpoint Dewpoint Depression Visibility Wind Speed Wind Dir Waves Ship Positions

Huadong Pearl 8

Last reported at 2016-Dec-08 13:33 UTC. Time now 2016-Dec-08 14:19 UTC.
Position N 36°52' E 122°28'.

Length 196 m; draft 5.4 m.

Type: Passenger vessel. MMSI: 374869000.

Date/timePositionNaut miles runAvg speedWind from/ knotsBaromVisibWave heightAir tempDewpointWater temp
2016-Dec-08 13:33N 36°52' E 122°28'1 1.4
2016-Dec-08 12:33N 36°53' E 122°27'0 0.0
2016-Dec-08 11:33N 36°53' E 122°27'0 0.0
2016-Dec-08 10:33N 36°53' E 122°27'0 0.0
2016-Dec-08 09:33N 36°53' E 122°27'0 0.0
2016-Dec-08 07:33N 36°53' E 122°27'0 0.0
2016-Dec-08 06:33N 36°53' E 122°27'0 0.0
2016-Dec-08 05:33N 36°53' E 122°27'0 0.0
2016-Dec-08 04:28N 36°53' E 122°27'0 0.0
2016-Dec-08 03:33N 36°53' E 122°27'0 0.0
2016-Dec-08 02:16N 36°53' E 122°27'0 0.0
2016-Dec-08 01:33N 36°53' E 122°27'0 0.0
2016-Dec-08 00:33N 36°53' E 122°27'7 7.2
2016-Dec-07 23:33N 36°51' E 122°35'1514.4
2016-Dec-07 22:31N 36°50' E 122°54'3 0.1
2016-Dec-06 14:12N 36°52' E 122°57'1319.6
2016-Dec-06 13:33N 36°51' E 122°41'1211.6
2016-Dec-06 12:33N 36°53' E 122°27'0 0.0
2016-Dec-06 11:33N 36°53' E 122°27'0 0.0
2016-Dec-06 10:33N 36°53' E 122°27'0 0.0
2016-Dec-06 09:33N 36°53' E 122°27'0 0.0
2016-Dec-06 08:33N 36°53' E 122°27'0 0.0
2016-Dec-06 07:33N 36°53' E 122°27'0 0.0
2016-Dec-06 06:33N 36°53' E 122°27'0 0.0
2016-Dec-06 05:27N 36°53' E 122°27'0 0.0
2016-Dec-06 04:15N 36°53' E 122°27'0 0.0
2016-Dec-06 03:27N 36°53' E 122°27'0 0.0
2016-Dec-06 02:27N 36°53' E 122°27'0 0.0
2016-Dec-06 01:27N 36°53' E 122°27'0 0.0
2016-Dec-06 00:33N 36°53' E 122°27'8 7.9
2016-Dec-05 23:33N 36°52' E 122°36'1817.3
2016-Dec-05 22:32N 36°51' E 122°59'11 0.4
2016-Dec-04 16:08N 36°51' E 123°12'1119.5
2016-Dec-04 15:33N 36°51' E 122°58'2019.9
2016-Dec-04 14:33N 36°51' E 122°34'6 6.0
2016-Dec-04 13:33N 36°53' E 122°27'0 0.0
2016-Dec-04 12:30N 36°53' E 122°27'0 0.0
2016-Dec-04 11:24N 36°53' E 122°27'0 0.0
2016-Dec-04 10:30N 36°53' E 122°27'0 0.0
2016-Dec-04 09:24N 36°53' E 122°27'0 0.0
2016-Dec-04 08:12N 36°53' E 122°27'0 0.0
2016-Dec-04 07:30N 36°53' E 122°27'0 0.0
2016-Dec-04 06:30N 36°53' E 122°27'0 0.0
2016-Dec-04 05:30N 36°53' E 122°27'0 0.0
2016-Dec-04 04:30N 36°53' E 122°27'0 0.0
2016-Dec-04 03:30N 36°53' E 122°27'0 0.0
2016-Dec-04 02:30N 36°53' E 122°27'0 0.0
2016-Dec-04 01:29N 36°53' E 122°27'0 0.0
2016-Dec-04 00:24N 36°53' E 122°27'0 0.0
2016-Dec-03 23:29N 36°53' E 122°27'0 0.0
2016-Dec-03 22:30N 36°53' E 122°27'0 0.0
2016-Dec-03 21:30N 36°53' E 122°27'0 0.0
2016-Dec-03 20:18N 36°53' E 122°27'0 0.0
2016-Dec-03 19:29N 36°53' E 122°27'0 0.0
2016-Dec-03 18:30N 36°53' E 122°27'0 0.0
2016-Dec-03 17:30N 36°53' E 122°27'0 0.0
2016-Dec-03 16:30N 36°53' E 122°27'0 0.0
2016-Dec-03 15:29N 36°53' E 122°27'0 0.0
2016-Dec-03 14:30N 36°53' E 122°27'0 0.0
2016-Dec-03 13:17N 36°53' E 122°27'0 0.0
2016-Dec-03 12:29N 36°53' E 122°27'0 0.0
2016-Dec-03 11:24N 36°53' E 122°27'0 0.0
2016-Dec-03 10:24N 36°53' E 122°27'0 0.0
2016-Dec-03 09:24N 36°53' E 122°27'0 0.0
2016-Dec-03 08:24N 36°53' E 122°27'0 0.0
2016-Dec-03 07:29N 36°53' E 122°27'0 0.0
2016-Dec-03 06:23N 36°53' E 122°27'0 0.0
2016-Dec-03 05:23N 36°53' E 122°27'0 0.0
2016-Dec-03 04:23N 36°53' E 122°27'0 0.0
2016-Dec-03 03:30N 36°53' E 122°27'0 0.0
2016-Dec-03 02:23N 36°53' E 122°27'0 0.0
2016-Dec-03 01:24N 36°53' E 122°27'0 0.0
2016-Dec-03 00:34N 36°53' E 122°27'8 7.9
2016-Dec-02 23:33N 36°51' E 122°36'1514.5
2016-Dec-02 22:33N 36°51' E 122°54'6 0.2
2016-Dec-01 15:16N 36°50' E 123°02'1216.6
2016-Dec-01 14:33N 36°50' E 122°47'1716.5
2016-Dec-01 13:32N 36°53' E 122°27'0 0.2
2016-Dec-01 12:33N 36°53' E 122°27'0 0.0
2016-Dec-01 11:30N 36°53' E 122°27'0 0.0
2016-Dec-01 09:31N 36°53' E 122°27'0 0.0
2016-Dec-01 07:20N 36°53' E 122°27'0 0.0
2016-Dec-01 06:30N 36°53' E 122°27'0 0.0
2016-Dec-01 05:32N 36°53' E 122°27'0 0.0
2016-Dec-01 04:19N 36°53' E 122°27'0 0.0
2016-Dec-01 03:31N 36°53' E 122°27'0 0.0
2016-Dec-01 02:32N 36°53' E 122°27'0 0.0
2016-Dec-01 01:19N 36°53' E 122°27'0 0.0
2016-Dec-01 00:32N 36°53' E 122°27'8 8.5
2016-Nov-30 23:33N 36°51' E 122°37'1515.2
2016-Nov-30 22:33N 36°51' E 122°56'3 0.1
2016-Nov-29 16:04N 36°52' E 122°52'612.3
2016-Nov-29 15:33N 36°51' E 122°45'1511.2
2016-Nov-29 14:15N 36°53' E 122°27'0 0.0
2016-Nov-29 13:15N 36°53' E 122°27'0 0.0
2016-Nov-29 12:33N 36°53' E 122°27'0 0.0
2016-Nov-29 08:22N 36°53' E 122°27'0 0.0
2016-Nov-29 07:30N 36°53' E 122°27'0 0.0
2016-Nov-29 06:26N 36°53' E 122°27'0 0.0
2016-Nov-29 03:30N 36°53' E 122°27'0 0.0
2016-Nov-29 02:24N 36°53' E 122°27'0 0.0
2016-Nov-29 01:12N 36°53' E 122°27'0 0.0
2016-Nov-29 00:30N 36°53' E 122°27'9 9.5
2016-Nov-28 23:33N 36°51' E 122°38'1918.2
2016-Nov-28 22:32N 36°51' E 123°01'  
Track history (hours):
 
Tides and Currents Weather Stations Pressure Air Temp Water Temp Dewpoint Dewpoint Depression Visibility Wind Speed Wind Dir Waves Ship Positions

Huadong Pearl 8

Last reported at 2016-Dec-08 13:33 UTC. Time now 2016-Dec-08 14:19 UTC.
Position N 36°52' E 122°28'.

Length 196 m; draft 5.4 m.

Type: Passenger vessel. MMSI: 374869000.

Date/timePositionNaut miles runAvg speedWind from/ knotsBaromVisibWave heightAir tempDewpointWater temp
2016-Dec-08 13:33N 36°52' E 122°28'1 1.4
2016-Dec-08 12:33N 36°53' E 122°27'0 0.0
2016-Dec-08 11:33N 36°53' E 122°27'0 0.0
2016-Dec-08 10:33N 36°53' E 122°27'0 0.0
2016-Dec-08 09:33N 36°53' E 122°27'0 0.0
2016-Dec-08 07:33N 36°53' E 122°27'0 0.0
2016-Dec-08 06:33N 36°53' E 122°27'0 0.0
2016-Dec-08 05:33N 36°53' E 122°27'0 0.0
2016-Dec-08 04:28N 36°53' E 122°27'0 0.0
2016-Dec-08 03:33N 36°53' E 122°27'0 0.0
2016-Dec-08 02:16N 36°53' E 122°27'0 0.0
2016-Dec-08 01:33N 36°53' E 122°27'0 0.0
2016-Dec-08 00:33N 36°53' E 122°27'7 7.2
2016-Dec-07 23:33N 36°51' E 122°35'1514.4
2016-Dec-07 22:31N 36°50' E 122°54'3 0.1
2016-Dec-06 14:12N 36°52' E 122°57'1319.6
2016-Dec-06 13:33N 36°51' E 122°41'1211.6
2016-Dec-06 12:33N 36°53' E 122°27'0 0.0
2016-Dec-06 11:33N 36°53' E 122°27'0 0.0
2016-Dec-06 10:33N 36°53' E 122°27'0 0.0
2016-Dec-06 09:33N 36°53' E 122°27'0 0.0
2016-Dec-06 08:33N 36°53' E 122°27'0 0.0
2016-Dec-06 07:33N 36°53' E 122°27'0 0.0
2016-Dec-06 06:33N 36°53' E 122°27'0 0.0
2016-Dec-06 05:27N 36°53' E 122°27'0 0.0
2016-Dec-06 04:15N 36°53' E 122°27'0 0.0
2016-Dec-06 03:27N 36°53' E 122°27'0 0.0
2016-Dec-06 02:27N 36°53' E 122°27'0 0.0
2016-Dec-06 01:27N 36°53' E 122°27'0 0.0
2016-Dec-06 00:33N 36°53' E 122°27'8 7.9
2016-Dec-05 23:33N 36°52' E 122°36'1817.3
2016-Dec-05 22:32N 36°51' E 122°59'11 0.4
2016-Dec-04 16:08N 36°51' E 123°12'1119.5
2016-Dec-04 15:33N 36°51' E 122°58'2019.9
2016-Dec-04 14:33N 36°51' E 122°34'6 6.0
2016-Dec-04 13:33N 36°53' E 122°27'0 0.0
2016-Dec-04 12:30N 36°53' E 122°27'0 0.0
2016-Dec-04 11:24N 36°53' E 122°27'0 0.0
2016-Dec-04 10:30N 36°53' E 122°27'0 0.0
2016-Dec-04 09:24N 36°53' E 122°27'0 0.0
2016-Dec-04 08:12N 36°53' E 122°27'0 0.0
2016-Dec-04 07:30N 36°53' E 122°27'0 0.0
2016-Dec-04 06:30N 36°53' E 122°27'0 0.0
2016-Dec-04 05:30N 36°53' E 122°27'0 0.0
2016-Dec-04 04:30N 36°53' E 122°27'0 0.0
2016-Dec-04 03:30N 36°53' E 122°27'0 0.0
2016-Dec-04 02:30N 36°53' E 122°27'0 0.0
2016-Dec-04 01:29N 36°53' E 122°27'0 0.0
2016-Dec-04 00:24N 36°53' E 122°27'0 0.0
2016-Dec-03 23:29N 36°53' E 122°27'0 0.0
2016-Dec-03 22:30N 36°53' E 122°27'0 0.0
2016-Dec-03 21:30N 36°53' E 122°27'0 0.0
2016-Dec-03 20:18N 36°53' E 122°27'0 0.0
2016-Dec-03 19:29N 36°53' E 122°27'0 0.0
2016-Dec-03 18:30N 36°53' E 122°27'0 0.0
2016-Dec-03 17:30N 36°53' E 122°27'0 0.0
2016-Dec-03 16:30N 36°53' E 122°27'0 0.0
2016-Dec-03 15:29N 36°53' E 122°27'0 0.0
2016-Dec-03 14:30N 36°53' E 122°27'0 0.0
2016-Dec-03 13:17N 36°53' E 122°27'0 0.0
2016-Dec-03 12:29N 36°53' E 122°27'0 0.0
2016-Dec-03 11:24N 36°53' E 122°27'0 0.0
2016-Dec-03 10:24N 36°53' E 122°27'0 0.0
2016-Dec-03 09:24N 36°53' E 122°27'0 0.0
2016-Dec-03 08:24N 36°53' E 122°27'0 0.0
2016-Dec-03 07:29N 36°53' E 122°27'0 0.0
2016-Dec-03 06:23N 36°53' E 122°27'0 0.0
2016-Dec-03 05:23N 36°53' E 122°27'0 0.0
2016-Dec-03 04:23N 36°53' E 122°27'0 0.0
2016-Dec-03 03:30N 36°53' E 122°27'0 0.0
2016-Dec-03 02:23N 36°53' E 122°27'0 0.0
2016-Dec-03 01:24N 36°53' E 122°27'0 0.0
2016-Dec-03 00:34N 36°53' E 122°27'8 7.9
2016-Dec-02 23:33N 36°51' E 122°36'1514.5
2016-Dec-02 22:33N 36°51' E 122°54'6 0.2
2016-Dec-01 15:16N 36°50' E 123°02'1216.6
2016-Dec-01 14:33N 36°50' E 122°47'1716.5
2016-Dec-01 13:32N 36°53' E 122°27'0 0.2
2016-Dec-01 12:33N 36°53' E 122°27'0 0.0
2016-Dec-01 11:30N 36°53' E 122°27'0 0.0
2016-Dec-01 09:31N 36°53' E 122°27'0 0.0
2016-Dec-01 07:20N 36°53' E 122°27'0 0.0
2016-Dec-01 06:30N 36°53' E 122°27'0 0.0
2016-Dec-01 05:32N 36°53' E 122°27'0 0.0
2016-Dec-01 04:19N 36°53' E 122°27'0 0.0
2016-Dec-01 03:31N 36°53' E 122°27'0 0.0
2016-Dec-01 02:32N 36°53' E 122°27'0 0.0
2016-Dec-01 01:19N 36°53' E 122°27'0 0.0
2016-Dec-01 00:32N 36°53' E 122°27'8 8.5
2016-Nov-30 23:33N 36°51' E 122°37'1515.2
2016-Nov-30 22:33N 36°51' E 122°56'3 0.1
2016-Nov-29 16:04N 36°52' E 122°52'612.3
2016-Nov-29 15:33N 36°51' E 122°45'1511.2
2016-Nov-29 14:15N 36°53' E 122°27'0 0.0
2016-Nov-29 13:15N 36°53' E 122°27'0 0.0
2016-Nov-29 12:33N 36°53' E 122°27'0 0.0
2016-Nov-29 08:22N 36°53' E 122°27'0 0.0
2016-Nov-29 07:30N 36°53' E 122°27'0 0.0
2016-Nov-29 06:26N 36°53' E 122°27'0 0.0
2016-Nov-29 03:30N 36°53' E 122°27'0 0.0
2016-Nov-29 02:24N 36°53' E 122°27'0 0.0
2016-Nov-29 01:12N 36°53' E 122°27'0 0.0
2016-Nov-29 00:30N 36°53' E 122°27'9 9.5
2016-Nov-28 23:33N 36°51' E 122°38'1918.2
2016-Nov-28 22:32N 36°51' E 123°01'  

Dump ship's entire track history